Time;durP1;ratioP1;P1;durP2;ratioP2;P2;SDS_P1;SDS_P2;PMS_P1;PMS_P2;Temp;Humidity;BMP_temperature;BMP_pressure;BME280_temperature;BME280_humidity;BME280_pressure;Samples;Min_cycle;Max_cycle;Signal;HPM_P1;HPM_P2
2022/05/13 00:02:03;;;;;;;12.23;9.10;;;;;;;;;;5039422;28;20451;-55
2022/05/13 00:04:28;;;;;;;12.45;9.23;;;;;;;;;;5046389;28;20277;-52
2022/05/13 00:06:53;;;;;;;11.73;8.90;;;;;;;;;;5040899;28;20103;-53
2022/05/13 00:09:19;;;;;;;10.73;8.80;;;;;;;;;;5041661;28;20067;-54
2022/05/13 00:11:44;;;;;;;11.53;9.33;;;;;;;;;;5043685;28;20024;-52
2022/05/13 00:14:09;;;;;;;11.25;8.60;;;;;;;;;;5042176;28;20020;-52
2022/05/13 00:16:35;;;;;;;11.93;9.37;;;;;;;;;;5041875;28;20048;-52
2022/05/13 00:19:02;;;;;;;11.63;8.70;;;;;;;;;;5039631;28;20123;-56
2022/05/13 00:21:27;;;;;;;11.05;8.20;;;;;;;;;;5039332;28;20025;-56
2022/05/13 00:23:52;;;;;;;11.00;8.50;;;;;;;;;;5045191;28;20025;-54
2022/05/13 00:26:17;;;;;;;10.60;8.53;;;;;;;;;;5043567;28;20036;-53
2022/05/13 00:28:43;;;;;;;11.83;8.60;;;;;;;;;;5043565;28;20833;-55
2022/05/13 00:31:08;;;;;;;12.67;8.57;;;;;;;;;;5038518;28;20271;-53
2022/05/13 00:33:33;;;;;;;11.23;8.38;;;;;;;;;;5043646;28;20266;-56
2022/05/13 00:35:59;;;;;;;11.47;8.47;;;;;;;;;;5043990;28;20504;-54
2022/05/13 00:38:25;;;;;;;10.35;8.25;;;;;;;;;;5042012;28;20288;-55
2022/05/13 00:40:50;;;;;;;10.02;8.07;;;;;;;;;;5044719;28;20051;-56
2022/05/13 00:43:36;;;;;;;8.93;7.60;;;;;;;;;;5042038;28;20021;-55
2022/05/13 00:46:03;;;;;;;10.55;8.07;;;;;;;;;;5038937;28;20551;-56
2022/05/13 00:48:28;;;;;;;10.55;8.40;;;;;;;;;;5043026;28;20094;-56
2022/05/13 00:50:53;;;;;;;10.87;8.03;;;;;;;;;;5045304;28;20029;-53
2022/05/13 00:53:19;;;;;;;11.17;8.50;;;;;;;;;;5041431;28;20279;-52
2022/05/13 00:55:44;;;;;;;10.27;7.83;;;;;;;;;;5037896;28;20112;-53
2022/05/13 00:58:11;;;;;;;10.63;7.93;;;;;;;;;;5044459;28;20108;-50
2022/05/13 01:00:36;;;;;;;10.63;7.82;;;;;;;;;;5041772;28;20017;-52
2022/05/13 01:03:01;;;;;;;10.48;8.30;;;;;;;;;;5044627;28;20025;-53
2022/05/13 01:05:28;;;;;;;8.80;7.35;;;;;;;;;;5040938;28;20016;-51
2022/05/13 01:07:53;;;;;;;10.55;7.65;;;;;;;;;;5036406;28;20052;-56
2022/05/13 01:10:19;;;;;;;9.25;7.63;;;;;;;;;;5043402;28;20064;-54
2022/05/13 01:12:48;;;;;;;9.50;7.75;;;;;;;;;;5037661;28;20031;-55
2022/05/13 01:15:15;;;;;;;10.55;7.50;;;;;;;;;;5041025;28;20020;-53
2022/05/13 01:20:28;;;;;;;9.15;7.18;;;;;;;;;;5041831;28;20082;-55
2022/05/13 01:22:54;;;;;;;10.35;7.50;;;;;;;;;;5042031;28;20013;-52
2022/05/13 01:25:20;;;;;;;8.55;7.03;;;;;;;;;;5042819;28;20495;-53
2022/05/13 01:27:46;;;;;;;9.48;7.70;;;;;;;;;;5040032;28;20049;-53
2022/05/13 01:30:12;;;;;;;8.55;6.85;;;;;;;;;;5042463;28;20060;-54
2022/05/13 01:32:37;;;;;;;8.15;6.80;;;;;;;;;;5039765;28;20027;-54
2022/05/13 01:35:03;;;;;;;9.60;6.83;;;;;;;;;;5041886;28;20100;-52
2022/05/13 01:37:28;;;;;;;9.73;7.38;;;;;;;;;;5041434;28;20009;-53
2022/05/13 01:39:54;;;;;;;9.03;6.80;;;;;;;;;;5041245;28;20021;-55
2022/05/13 01:42:19;;;;;;;8.63;6.73;;;;;;;;;;5039763;28;20100;-56
2022/05/13 01:44:44;;;;;;;8.30;7.17;;;;;;;;;;5044187;28;20084;-54
2022/05/13 01:47:09;;;;;;;9.40;7.30;;;;;;;;;;5038565;28;20096;-56
2022/05/13 01:49:34;;;;;;;7.83;6.37;;;;;;;;;;5041182;28;20120;-54
2022/05/13 01:52:00;;;;;;;7.93;6.73;;;;;;;;;;5043981;28;20108;-56
2022/05/13 01:54:25;;;;;;;7.87;6.67;;;;;;;;;;5038567;28;20059;-54
2022/05/13 01:56:50;;;;;;;7.80;6.13;;;;;;;;;;5038591;28;20100;-54
2022/05/13 01:59:15;;;;;;;8.33;6.80;;;;;;;;;;5042778;28;20020;-53
2022/05/13 02:01:40;;;;;;;9.03;6.80;;;;;;;;;;5038003;28;20021;-55
2022/05/13 02:04:06;;;;;;;7.53;6.50;;;;;;;;;;5041657;28;20024;-55
2022/05/13 02:06:31;;;;;;;8.70;6.63;;;;;;;;;;5040636;28;20017;-55
2022/05/13 02:08:56;;;;;;;7.47;6.23;;;;;;;;;;5034395;28;20025;-55
2022/05/13 02:11:22;;;;;;;8.85;6.15;;;;;;;;;;5039915;28;20044;-54
2022/05/13 02:13:47;;;;;;;8.13;6.50;;;;;;;;;;5037006;28;20015;-52
2022/05/13 02:16:13;;;;;;;7.85;6.22;;;;;;;;;;5036455;28;20354;-55
2022/05/13 02:18:38;;;;;;;7.18;5.88;;;;;;;;;;5035688;28;20381;-52
2022/05/13 02:21:03;;;;;;;7.70;6.18;;;;;;;;;;5036927;28;20040;-54
2022/05/13 02:23:28;;;;;;;7.93;6.10;;;;;;;;;;5038663;28;20020;-55
2022/05/13 02:25:58;;;;;;;8.03;6.17;;;;;;;;;;5039749;28;20100;-54
2022/05/13 02:28:23;;;;;;;7.32;5.78;;;;;;;;;;5037259;28;20292;-54
2022/05/13 02:30:49;;;;;;;7.35;5.85;;;;;;;;;;5037886;28;20558;-52
2022/05/13 02:33:14;;;;;;;8.63;6.53;;;;;;;;;;5037590;28;20495;-56
2022/05/13 02:35:39;;;;;;;7.68;6.35;;;;;;;;;;5040872;28;20303;-53
2022/05/13 02:38:04;;;;;;;7.07;5.97;;;;;;;;;;5038820;28;20326;-55
2022/05/13 02:43:14;;;;;;;6.47;5.40;;;;;;;;;;5037024;28;20401;-56
2022/05/13 02:45:40;;;;;;;6.97;6.15;;;;;;;;;;5041612;28;20071;-54
2022/05/13 02:48:05;;;;;;;6.45;5.55;;;;;;;;;;5046996;28;20054;-53
2022/05/13 02:50:30;;;;;;;7.10;5.70;;;;;;;;;;5039588;28;20021;-55
2022/05/13 02:52:55;;;;;;;6.60;5.63;;;;;;;;;;5043428;28;20009;-55
2022/05/13 02:55:21;;;;;;;6.43;5.60;;;;;;;;;;5041471;28;20024;-54
2022/05/13 02:57:46;;;;;;;6.50;5.53;;;;;;;;;;5044112;28;20381;-54
2022/05/13 03:00:12;;;;;;;6.15;5.10;;;;;;;;;;5042192;28;20057;-55
2022/05/13 03:02:37;;;;;;;6.30;5.10;;;;;;;;;;5042619;28;20020;-53
2022/05/13 03:05:02;;;;;;;6.23;5.40;;;;;;;;;;5043344;28;20082;-53
2022/05/13 03:07:28;;;;;;;6.35;5.68;;;;;;;;;;5040727;28;20266;-52
2022/05/13 03:09:53;;;;;;;5.87;5.23;;;;;;;;;;5041006;28;20103;-55
2022/05/13 03:12:18;;;;;;;6.90;5.60;;;;;;;;;;5042428;28;20267;-54
2022/05/13 03:14:43;;;;;;;6.13;5.30;;;;;;;;;;5041219;28;20015;-57
2022/05/13 03:17:08;;;;;;;7.17;5.57;;;;;;;;;;5042935;28;20013;-56
2022/05/13 03:19:34;;;;;;;6.10;4.87;;;;;;;;;;5041515;28;20017;-56
2022/05/13 03:21:59;;;;;;;7.38;5.13;;;;;;;;;;5044865;28;20024;-53
2022/05/13 03:24:24;;;;;;;5.40;4.70;;;;;;;;;;5042901;28;20029;-54
2022/05/13 03:26:50;;;;;;;5.37;4.77;;;;;;;;;;5039766;28;20581;-56
2022/05/13 03:29:15;;;;;;;6.33;5.10;;;;;;;;;;5039913;28;20550;-53
2022/05/13 03:31:40;;;;;;;6.72;5.30;;;;;;;;;;5044100;28;20585;-54
2022/05/13 03:34:06;;;;;;;5.53;4.43;;;;;;;;;;5043153;28;20013;-57
2022/05/13 03:36:32;;;;;;;6.57;4.88;;;;;;;;;;5040961;28;20025;-54
2022/05/13 03:38:57;;;;;;;7.20;5.10;;;;;;;;;;5044705;28;20017;-55
2022/05/13 03:41:22;;;;;;;5.40;4.53;;;;;;;;;;5043376;28;20273;-53
2022/05/13 03:43:47;;;;;;;7.03;4.93;;;;;;;;;;5042759;28;20017;-56
2022/05/13 03:46:13;;;;;;;5.93;4.83;;;;;;;;;;5029718;28;20330;-54
2022/05/13 03:48:38;;;;;;;5.93;4.90;;;;;;;;;;5029675;28;20020;-55
2022/05/13 03:51:03;;;;;;;5.82;4.22;;;;;;;;;;5032650;28;20279;-55
2022/05/13 03:53:28;;;;;;;6.70;4.97;;;;;;;;;;5041337;28;20021;-56
2022/05/13 03:55:54;;;;;;;6.40;5.20;;;;;;;;;;5040193;28;20083;-54
2022/05/13 03:58:19;;;;;;;5.80;4.63;;;;;;;;;;5039505;28;20020;-54
2022/05/13 04:00:45;;;;;;;5.03;4.32;;;;;;;;;;5038965;28;20012;-56
2022/05/13 04:03:10;;;;;;;5.72;4.50;;;;;;;;;;5032269;28;21376;-61
2022/05/13 04:11:03;;;;;;;5.38;4.40;;;;;;;;;;5037342;28;20039;-60
2022/05/13 04:16:12;;;;;;;5.32;4.50;;;;;;;;;;5040057;28;20023;-61
2022/05/13 04:18:38;;;;;;;7.03;4.70;;;;;;;;;;5041968;28;20024;-61
2022/05/13 04:21:05;;;;;;;5.88;4.57;;;;;;;;;;5042062;28;20283;-61
2022/05/13 04:23:33;;;;;;;7.30;4.63;;;;;;;;;;5040192;28;20060;-54
2022/05/13 04:25:59;;;;;;;6.47;4.63;;;;;;;;;;5042764;28;20103;-56
2022/05/13 04:28:24;;;;;;;4.93;3.97;;;;;;;;;;5038925;28;20479;-57
2022/05/13 04:30:49;;;;;;;6.47;3.97;;;;;;;;;;5036967;28;20033;-55
2022/05/13 04:33:14;;;;;;;6.28;4.45;;;;;;;;;;5035677;28;20131;-53
2022/05/13 04:35:40;;;;;;;4.93;3.90;;;;;;;;;;5042541;28;20025;-56
2022/05/13 04:38:05;;;;;;;6.20;4.70;;;;;;;;;;5042552;28;20028;-53
2022/05/13 04:40:30;;;;;;;4.63;4.13;;;;;;;;;;5028702;28;20033;-55
2022/05/13 04:42:57;;;;;;;4.47;3.90;;;;;;;;;;5024998;28;20404;-54
2022/05/13 04:45:24;;;;;;;5.43;4.15;;;;;;;;;;5034665;28;20321;-53
2022/05/13 04:48:16;;;;;;;4.65;3.88;;;;;;;;;;5040162;28;20458;-54
2022/05/13 04:51:02;;;;;;;5.50;3.90;;;;;;;;;;5037316;28;20036;-53
2022/05/13 04:53:29;;;;;;;5.07;3.88;;;;;;;;;;5044741;28;20036;-53
2022/05/13 04:55:54;;;;;;;7.57;5.32;;;;;;;;;;5040681;28;20108;-53
2022/05/13 04:58:20;;;;;;;6.05;4.60;;;;;;;;;;5044261;28;20117;-53
2022/05/13 05:00:46;;;;;;;6.07;5.22;;;;;;;;;;5041226;28;20043;-54
2022/05/13 05:03:11;;;;;;;7.03;4.40;;;;;;;;;;5043828;28;20098;-53
2022/05/13 05:05:36;;;;;;;6.35;4.30;;;;;;;;;;5046467;28;20009;-52
2022/05/13 05:08:01;;;;;;;4.87;4.30;;;;;;;;;;5044951;28;20017;-53
2022/05/13 05:10:27;;;;;;;6.30;3.87;;;;;;;;;;5038609;28;20076;-53
2022/05/13 05:12:53;;;;;;;4.20;3.80;;;;;;;;;;5038014;28;20268;-55
2022/05/13 05:15:18;;;;;;;5.13;4.10;;;;;;;;;;5043886;28;20352;-53
2022/05/13 05:17:43;;;;;;;6.13;3.80;;;;;;;;;;5039533;28;20527;-52
2022/05/13 05:20:08;;;;;;;4.97;3.70;;;;;;;;;;5047188;28;20275;-53
2022/05/13 05:22:34;;;;;;;5.80;4.40;;;;;;;;;;5038890;28;20034;-52
2022/05/13 05:24:59;;;;;;;4.13;3.70;;;;;;;;;;5030145;28;20033;-54
2022/05/13 05:27:24;;;;;;;6.10;3.83;;;;;;;;;;5035844;28;20021;-55
2022/05/13 05:29:50;;;;;;;5.07;3.67;;;;;;;;;;5035479;28;20082;-51
2022/05/13 05:32:15;;;;;;;7.07;4.10;;;;;;;;;;5035702;28;20009;-56
2022/05/13 05:34:41;;;;;;;5.45;4.30;;;;;;;;;;5036192;28;20142;-54
2022/05/13 05:37:07;;;;;;;6.07;3.95;;;;;;;;;;5036152;28;20025;-52
2022/05/13 05:39:32;;;;;;;6.22;3.97;;;;;;;;;;5038272;28;20679;-51
2022/05/13 05:41:57;;;;;;;4.20;3.47;;;;;;;;;;5029404;28;20112;-52
2022/05/13 05:44:23;;;;;;;4.70;3.40;;;;;;;;;;5032160;28;20078;-52
2022/05/13 05:46:48;;;;;;;4.37;3.57;;;;;;;;;;5036367;28;20053;-52
2022/05/13 05:49:13;;;;;;;4.63;3.60;;;;;;;;;;5039436;28;20287;-52
2022/05/13 05:51:39;;;;;;;5.32;3.70;;;;;;;;;;5034716;28;20029;-51
2022/05/13 05:59:31;;;;;;;3.80;3.13;;;;;;;;;;5041962;28;20690;-52
2022/05/13 06:01:57;;;;;;;5.07;3.70;;;;;;;;;;5040270;28;20041;-54
2022/05/13 06:04:22;;;;;;;5.97;3.93;;;;;;;;;;5044533;28;20297;-53
2022/05/13 06:06:48;;;;;;;4.38;3.20;;;;;;;;;;5037931;28;20024;-51
2022/05/13 06:09:13;;;;;;;5.70;3.22;;;;;;;;;;5036498;28;20024;-53
2022/05/13 06:11:38;;;;;;;5.40;3.63;;;;;;;;;;5033299;28;20025;-53
2022/05/13 06:14:03;;;;;;;4.13;3.50;;;;;;;;;;5036718;28;20021;-53
2022/05/13 06:16:29;;;;;;;5.28;3.60;;;;;;;;;;5036265;28;20025;-52
2022/05/13 06:19:00;;;;;;;4.03;3.25;;;;;;;;;;5037811;28;20052;-53
2022/05/13 06:21:26;;;;;;;5.53;3.55;;;;;;;;;;5036503;28;20610;-52
2022/05/13 06:23:51;;;;;;;4.90;3.65;;;;;;;;;;5039535;28;20013;-51
2022/05/13 06:26:16;;;;;;;4.83;3.40;;;;;;;;;;5039257;28;20009;-52
2022/05/13 06:28:42;;;;;;;4.73;3.33;;;;;;;;;;5039805;28;20163;-51
2022/05/13 06:31:09;;;;;;;5.15;3.28;;;;;;;;;;5038137;28;20797;-53
2022/05/13 06:33:34;;;;;;;5.25;3.63;;;;;;;;;;5030363;28;20674;-53
2022/05/13 06:35:59;;;;;;;5.07;3.50;;;;;;;;;;5036201;28;20025;-53
2022/05/13 06:38:25;;;;;;;5.17;3.43;;;;;;;;;;5035427;28;20368;-53
2022/05/13 06:40:51;;;;;;;5.38;3.33;;;;;;;;;;5039791;28;20116;-52
2022/05/13 06:43:16;;;;;;;4.50;3.42;;;;;;;;;;5035983;28;20185;-53
2022/05/13 06:45:41;;;;;;;6.73;3.60;;;;;;;;;;5025496;28;20040;-52
2022/05/13 06:48:07;;;;;;;7.70;3.73;;;;;;;;;;5037334;28;20017;-53
2022/05/13 06:50:32;;;;;;;5.97;3.42;;;;;;;;;;5029545;28;20346;-53
2022/05/13 06:52:57;;;;;;;5.47;3.30;;;;;;;;;;5039189;28;20366;-51
2022/05/13 06:55:22;;;;;;;4.47;3.25;;;;;;;;;;5043089;28;20647;-53
2022/05/13 06:57:48;;;;;;;5.78;3.40;;;;;;;;;;5044829;28;20033;-53
2022/05/13 07:00:13;;;;;;;5.17;3.37;;;;;;;;;;5039346;28;20107;-53
2022/05/13 07:02:38;;;;;;;6.25;3.58;;;;;;;;;;5037019;28;20108;-52
2022/05/13 07:05:04;;;;;;;4.07;3.60;;;;;;;;;;5039559;28;20838;-51
2022/05/13 07:07:29;;;;;;;6.35;3.50;;;;;;;;;;5039891;28;20025;-51
2022/05/13 07:09:54;;;;;;;4.07;3.27;;;;;;;;;;5038563;28;20040;-51
2022/05/13 07:12:20;;;;;;;4.33;3.33;;;;;;;;;;5023648;28;20272;-51
2022/05/13 07:14:45;;;;;;;4.87;3.10;;;;;;;;;;5027659;28;20021;-52
2022/05/13 07:17:10;;;;;;;5.33;3.90;;;;;;;;;;5027404;28;20025;-50
2022/05/13 07:19:35;;;;;;;5.43;3.70;;;;;;;;;;5040694;28;20713;-51
2022/05/13 07:22:01;;;;;;;5.53;3.60;;;;;;;;;;5036776;28;20442;-52
2022/05/13 07:24:26;;;;;;;6.80;4.10;;;;;;;;;;5037296;28;20439;-54
2022/05/13 07:26:52;;;;;;;6.03;4.07;;;;;;;;;;5025117;28;20445;-52
2022/05/13 07:29:17;;;;;;;6.20;3.63;;;;;;;;;;5025906;28;20049;-52
2022/05/13 07:31:42;;;;;;;7.13;3.80;;;;;;;;;;5024474;28;20375;-52
2022/05/13 07:34:07;;;;;;;4.97;3.70;;;;;;;;;;5033926;28;20337;-53
2022/05/13 07:36:33;;;;;;;4.68;3.72;;;;;;;;;;5043700;28;20029;-52
2022/05/13 07:41:42;;;;;;;5.07;3.90;;;;;;;;;;5042313;28;20086;-51
2022/05/13 07:44:07;;;;;;;4.93;3.70;;;;;;;;;;5044732;28;20707;-51
2022/05/13 07:46:32;;;;;;;5.83;3.63;;;;;;;;;;5040548;28;20033;-52
2022/05/13 07:48:58;;;;;;;5.73;3.57;;;;;;;;;;5045401;28;20036;-53
2022/05/13 07:51:26;;;;;;;5.27;3.60;;;;;;;;;;5046620;28;20289;-52
2022/05/13 07:53:51;;;;;;;4.90;3.78;;;;;;;;;;5046420;28;20053;-51
2022/05/13 07:56:16;;;;;;;5.97;3.50;;;;;;;;;;5043354;28;20146;-53
2022/05/13 07:58:41;;;;;;;6.93;3.87;;;;;;;;;;5044358;28;20267;-53
2022/05/13 08:01:06;;;;;;;5.63;3.93;;;;;;;;;;5026781;28;20280;-51
2022/05/13 08:03:32;;;;;;;5.20;3.67;;;;;;;;;;5025517;28;20116;-52
2022/05/13 08:06:02;;;;;;;7.33;4.00;;;;;;;;;;5023782;28;20268;-53
2022/05/13 08:08:30;;;;;;;4.35;3.55;;;;;;;;;;5025625;28;20029;-52
2022/05/13 08:10:56;;;;;;;5.15;3.45;;;;;;;;;;5026086;28;20127;-52
2022/05/13 08:13:21;;;;;;;4.90;3.30;;;;;;;;;;5024964;28;20449;-54
2022/05/13 08:15:46;;;;;;;4.35;3.20;;;;;;;;;;5025422;28;20409;-53
2022/05/13 08:18:12;;;;;;;5.82;3.70;;;;;;;;;;5026365;28;20013;-51
2022/05/13 08:20:37;;;;;;;4.63;3.47;;;;;;;;;;5025645;28;20155;-50
2022/05/13 08:23:03;;;;;;;6.30;3.63;;;;;;;;;;5024591;28;20032;-52
2022/05/13 08:25:28;;;;;;;5.90;3.85;;;;;;;;;;5026590;28;20324;-52
2022/05/13 08:27:53;;;;;;;5.37;3.73;;;;;;;;;;5025744;28;20087;-51
2022/05/13 08:30:18;;;;;;;4.57;3.30;;;;;;;;;;5025617;28;20308;-51
2022/05/13 08:32:44;;;;;;;4.80;3.63;;;;;;;;;;5024581;28;20257;-52
2022/05/13 08:35:09;;;;;;;4.00;3.43;;;;;;;;;;5033600;28;20037;-52
2022/05/13 08:37:45;;;;;;;5.30;3.47;;;;;;;;;;5024494;28;21014;-52
2022/05/13 08:40:25;;;;;;;5.65;3.90;;;;;;;;;;5024860;28;20045;-53
2022/05/13 08:42:50;;;;;;;3.88;3.25;;;;;;;;;;5024756;28;20014;-51
2022/05/13 08:45:17;;;;;;;4.70;3.50;;;;;;;;;;5025747;28;20032;-51
2022/05/13 08:47:53;;;;;;;4.30;3.28;;;;;;;;;;5034739;28;20104;-53
2022/05/13 08:50:21;;;;;;;4.40;3.35;;;;;;;;;;5029244;28;20084;-52
2022/05/13 08:53:08;;;;;;;5.00;3.72;;;;;;;;;;5024884;28;20019;-52
2022/05/13 08:55:50;;;;;;;4.80;3.42;;;;;;;;;;5026143;28;20063;-53
2022/05/13 08:58:19;;;;;;;4.20;3.15;;;;;;;;;;5024561;28;20052;-53
2022/05/13 09:00:45;;;;;;;4.43;3.60;;;;;;;;;;5024533;28;20013;-53
2022/05/13 09:03:16;;;;;;;6.97;3.28;;;;;;;;;;5028608;28;20017;-53
2022/05/13 09:05:44;;;;;;;12.30;5.13;;;;;;;;;;5033324;28;20013;-53
2022/05/13 09:08:09;;;;;;;12.38;5.57;;;;;;;;;;5031365;28;20021;-53
2022/05/13 09:10:49;;;;;;;11.40;4.80;;;;;;;;;;5037359;28;20025;-53
2022/05/13 09:13:35;;;;;;;12.27;4.95;;;;;;;;;;5043441;28;20009;-53
2022/05/13 09:16:01;;;;;;;7.20;4.85;;;;;;;;;;5023875;28;20045;-53
2022/05/13 09:18:26;;;;;;;7.25;4.57;;;;;;;;;;5032630;28;20456;-53
2022/05/13 09:20:55;;;;;;;9.93;5.10;;;;;;;;;;5044563;28;20044;-53
2022/05/13 09:23:21;;;;;;;9.07;4.97;;;;;;;;;;5038761;28;20071;-55
2022/05/13 09:26:03;;;;;;;7.10;5.05;;;;;;;;;;5044904;28;20028;-53
2022/05/13 09:28:28;;;;;;;9.18;4.78;;;;;;;;;;5044294;28;20103;-52
2022/05/13 09:30:58;;;;;;;7.47;4.60;;;;;;;;;;5042003;28;20076;-54
2022/05/13 09:33:36;;;;;;;6.80;4.75;;;;;;;;;;5025153;28;20064;-51
2022/05/13 09:36:06;;;;;;;9.68;5.35;;;;;;;;;;5032339;28;20087;-52
2022/05/13 09:38:31;;;;;;;;;;;;;;;;;;5025361;28;20500;-53
2022/05/13 09:40:56;;;;;;;11.27;4.97;;;;;;;;;;5022071;28;20372;-52
2022/05/13 09:43:41;;;;;;;7.57;4.80;;;;;;;;;;5025045;28;20496;-52
2022/05/13 09:46:06;;;;;;;7.93;4.80;;;;;;;;;;5022945;28;20025;-52
2022/05/13 09:48:31;;;;;;;6.90;4.40;;;;;;;;;;5025080;28;20091;-52
2022/05/13 09:50:56;;;;;;;8.90;4.68;;;;;;;;;;5043926;28;20053;-52
2022/05/13 09:53:22;;;;;;;8.30;4.73;;;;;;;;;;5042978;28;20081;-50
2022/05/13 09:55:48;;;;;;;6.43;4.23;;;;;;;;;;5043973;28;20377;-52
2022/05/13 09:58:37;;;;;;;6.65;4.32;;;;;;;;;;5042958;28;20655;-53
2022/05/13 10:01:06;;;;;;;8.18;4.40;;;;;;;;;;5044174;28;20016;-54
2022/05/13 10:03:36;;;;;;;6.25;4.30;;;;;;;;;;5044891;28;20777;-54
2022/05/13 10:06:04;;;;;;;6.60;3.92;;;;;;;;;;5044611;28;20021;-53
2022/05/13 10:08:29;;;;;;;7.22;4.00;;;;;;;;;;5043850;28;20032;-51
2022/05/13 10:13:59;;;;;;;6.55;4.13;;;;;;;;;;5044004;28;20310;-53
2022/05/13 10:16:28;;;;;;;7.40;3.90;;;;;;;;;;5042680;28;20017;-52
2022/05/13 10:19:28;;;;;;;7.30;3.47;;;;;;;;;;5043194;28;20780;-53
2022/05/13 10:21:54;;;;;;;4.90;2.92;;;;;;;;;;5002669;28;20711;-52
2022/05/13 10:24:24;;;;;;;3.87;2.60;;;;;;;;;;5035102;28;20150;-52
2022/05/13 10:26:49;;;;;;;3.58;2.53;;;;;;;;;;5042278;28;20017;-51
2022/05/13 10:29:16;;;;;;;4.80;2.72;;;;;;;;;;5043608;28;20075;-53
2022/05/13 10:31:42;;;;;;;7.13;2.90;;;;;;;;;;5041874;28;20043;-52
2022/05/13 10:34:26;;;;;;;5.18;3.38;;;;;;;;;;5043583;28;20450;-52
2022/05/13 10:36:54;;;;;;;3.53;2.97;;;;;;;;;;5044024;28;20551;-53
2022/05/13 10:39:35;;;;;;;6.70;2.97;;;;;;;;;;5043277;28;20025;-53
2022/05/13 10:42:04;;;;;;;4.25;2.83;;;;;;;;;;5043339;28;20162;-51
2022/05/13 10:44:37;;;;;;;4.90;2.90;;;;;;;;;;5042917;28;20400;-51
2022/05/13 10:47:04;;;;;;;6.78;3.05;;;;;;;;;;5026976;28;20018;-49
2022/05/13 10:49:39;;;;;;;5.57;2.58;;;;;;;;;;5037955;28;20466;-48
2022/05/13 10:52:23;;;;;;;4.85;3.00;;;;;;;;;;5038650;28;20020;-47
2022/05/13 10:54:50;;;;;;;5.03;3.08;;;;;;;;;;5041798;28;20033;-48
2022/05/13 10:57:21;;;;;;;4.60;2.88;;;;;;;;;;5025276;28;20190;-51
2022/05/13 11:00:06;;;;;;;4.55;3.10;;;;;;;;;;5028850;28;20032;-51
2022/05/13 11:02:41;;;;;;;5.95;3.00;;;;;;;;;;5035062;28;20041;-50
2022/05/13 11:05:25;;;;;;;4.88;3.00;;;;;;;;;;5048615;28;20104;-51
2022/05/13 11:07:50;;;;;;;6.15;3.00;;;;;;;;;;5049817;28;20028;-50
2022/05/13 11:10:16;;;;;;;5.43;3.40;;;;;;;;;;5052901;28;20098;-52
2022/05/13 11:13:00;;;;;;;4.80;2.90;;;;;;;;;;5048058;28;20025;-52
2022/05/13 11:15:29;;;;;;;4.00;2.65;;;;;;;;;;5048918;28;20080;-50
2022/05/13 11:17:57;;;;;;;7.18;2.80;;;;;;;;;;5047900;28;20013;-50
2022/05/13 11:20:30;;;;;;;6.15;2.95;;;;;;;;;;5048535;28;20071;-50
2022/05/13 11:23:14;;;;;;;3.95;3.00;;;;;;;;;;5047203;28;20025;-52
2022/05/13 11:25:55;;;;;;;4.40;2.95;;;;;;;;;;5028555;28;20033;-49
2022/05/13 11:28:28;;;;;;;3.70;2.50;;;;;;;;;;5036953;28;20071;-53
2022/05/13 11:30:53;;;;;;;5.07;2.90;;;;;;;;;;5041498;28;20040;-50
2022/05/13 11:33:25;;;;;;;3.83;2.80;;;;;;;;;;5046714;28;20412;-49
2022/05/13 11:35:53;;;;;;;4.03;2.70;;;;;;;;;;5032162;28;20100;-49
2022/05/13 11:38:24;;;;;;;4.93;2.75;;;;;;;;;;5026343;28;20095;-50
2022/05/13 11:40:50;;;;;;;4.03;2.70;;;;;;;;;;5042098;28;20178;-50
2022/05/13 11:43:25;;;;;;;4.07;2.63;;;;;;;;;;5046194;28;20507;-49
2022/05/13 11:45:53;;;;;;;2.92;2.58;;;;;;;;;;5044885;28;20502;-50
2022/05/13 11:48:20;;;;;;;5.28;2.70;;;;;;;;;;5040698;28;20021;-49
2022/05/13 11:50:45;;;;;;;3.05;2.70;;;;;;;;;;5041068;28;20025;-50
2022/05/13 11:53:10;;;;;;;4.53;2.60;;;;;;;;;;5041525;28;20543;-48
2022/05/13 11:55:41;;;;;;;3.87;2.83;;;;;;;;;;5038506;28;20024;-49
2022/05/13 11:58:07;;;;;;;3.75;2.80;;;;;;;;;;5039339;28;20009;-49
2022/05/13 12:00:33;;;;;;;4.45;2.90;;;;;;;;;;5034287;28;20028;-50
2022/05/13 12:03:08;;;;;;;3.90;2.75;;;;;;;;;;5035643;28;20067;-49
2022/05/13 12:05:53;;;;;;;3.55;2.50;;;;;;;;;;5031905;28;20037;-51
2022/05/13 12:08:22;;;;;;;4.05;2.72;;;;;;;;;;5025264;28;20026;-50
2022/05/13 12:11:00;;;;;;;2.85;2.40;;;;;;;;;;5026432;28;20520;-48
2022/05/13 12:13:44;;;;;;;3.42;2.83;;;;;;;;;;5032859;28;20026;-52
2022/05/13 12:16:28;;;;;;;3.10;2.67;;;;;;;;;;5028075;28;20018;-47
2022/05/13 12:18:53;;;;;;;4.03;2.78;;;;;;;;;;5029310;28;20124;-49
2022/05/13 12:21:22;;;;;;;5.07;2.57;;;;;;;;;;5025541;28;20100;-49
2022/05/13 12:23:54;;;;;;;4.05;2.70;;;;;;;;;;5025170;28;20036;-50
2022/05/13 12:26:24;;;;;;;3.00;2.38;;;;;;;;;;5025129;28;20479;-51
2022/05/13 12:28:55;;;;;;;3.10;2.80;;;;;;;;;;5032317;28;20673;-50
2022/05/13 12:31:29;;;;;;;4.30;2.30;;;;;;;;;;5027681;28;20029;-51
2022/05/13 12:37:33;;;;;;;2.95;2.60;;;;;;;;;;5023565;28;20029;-50
2022/05/13 12:39:41;;;;;;;3.33;2.90;;;;;;;;;;5025548;28;20028;-50
2022/05/13 12:42:09;;;;;;;3.83;2.60;;;;;;;;;;5024925;28;20017;-50
2022/05/13 12:44:35;;;;;;;5.45;2.90;;;;;;;;;;5025043;28;20071;-49
2022/05/13 12:47:12;;;;;;;5.35;2.47;;;;;;;;;;5024041;28;20126;-51
2022/05/13 12:49:56;;;;;;;3.45;2.30;;;;;;;;;;5024477;28;20063;-48
2022/05/13 12:52:22;;;;;;;4.90;2.92;;;;;;;;;;5024884;28;20688;-49
2022/05/13 12:54:51;;;;;;;3.95;2.50;;;;;;;;;;5025110;28;20024;-49
2022/05/13 12:57:25;;;;;;;2.97;2.47;;;;;;;;;;5026783;28;20480;-50
2022/05/13 12:59:51;;;;;;;3.15;2.60;;;;;;;;;;5024774;28;20040;-50
2022/05/13 13:02:16;;;;;;;3.35;2.40;;;;;;;;;;5034619;28;20351;-50
2022/05/13 13:04:44;;;;;;;4.57;2.40;;;;;;;;;;5040717;28;20013;-49
2022/05/13 13:07:11;;;;;;;5.07;2.45;;;;;;;;;;5040713;28;20025;-52
2022/05/13 13:09:41;;;;;;;4.22;2.60;;;;;;;;;;5038580;28;20016;-50
2022/05/13 13:12:16;;;;;;;4.88;2.40;;;;;;;;;;5041633;28;20021;-50
2022/05/13 13:15:00;;;;;;;4.90;2.80;;;;;;;;;;5035586;28;20048;-51
2022/05/13 13:17:25;;;;;;;3.33;2.40;;;;;;;;;;5042366;28;20013;-50
2022/05/13 13:19:51;;;;;;;4.57;2.47;;;;;;;;;;5047842;28;20028;-53
2022/05/13 13:22:18;;;;;;;3.88;2.45;;;;;;;;;;5045670;28;20025;-50
2022/05/13 13:24:43;;;;;;;5.28;2.78;;;;;;;;;;5036876;28;20094;-50
2022/05/13 13:27:12;;;;;;;3.60;2.57;;;;;;;;;;5040547;28;20024;-52
2022/05/13 13:29:39;;;;;;;3.33;2.30;;;;;;;;;;5035585;28;20299;-50
2022/05/13 13:32:05;;;;;;;3.00;2.45;;;;;;;;;;5035037;28;20032;-50
2022/05/13 13:34:30;;;;;;;3.53;2.38;;;;;;;;;;5043319;28;20027;-52
2022/05/13 13:36:55;;;;;;;2.63;2.30;;;;;;;;;;5037456;28;20132;-51
2022/05/13 13:39:22;;;;;;;3.15;2.40;;;;;;;;;;5023989;28;20020;-51
2022/05/13 13:41:47;;;;;;;3.25;2.20;;;;;;;;;;5028848;28;20032;-51
2022/05/13 13:44:13;;;;;;;4.97;2.35;;;;;;;;;;5025166;28;20029;-49
2022/05/13 13:46:38;;;;;;;4.15;2.25;;;;;;;;;;5023990;28;20021;-50
2022/05/13 13:49:04;;;;;;;3.87;2.07;;;;;;;;;;5028242;28;20048;-50
2022/05/13 13:51:30;;;;;;;3.63;2.35;;;;;;;;;;5024282;28;20025;-51
2022/05/13 13:54:09;;;;;;;3.08;2.20;;;;;;;;;;5036737;28;20500;-52
2022/05/13 13:56:35;;;;;;;3.72;2.22;;;;;;;;;;5034743;28;20020;-49
2022/05/13 13:59:16;;;;;;;3.75;2.30;;;;;;;;;;5035473;28;20013;-50
2022/05/13 14:01:45;;;;;;;3.05;2.20;;;;;;;;;;5029758;28;20033;-50
2022/05/13 14:04:11;;;;;;;;;;;;;;;;;;5022250;28;20013;-50
2022/05/13 14:06:36;;;;;;;4.17;2.57;;;;;;;;;;5024047;28;19947;-51
2022/05/13 14:09:01;;;;;;;2.33;2.00;;;;;;;;;;5022307;28;20491;-51
2022/05/13 14:11:27;;;;;;;3.03;2.15;;;;;;;;;;5027085;28;20017;-51
2022/05/13 14:13:53;;;;;;;2.77;2.03;;;;;;;;;;5058371;28;20026;-51
2022/05/13 14:16:19;;;;;;;3.22;2.15;;;;;;;;;;5029721;28;20268;-52
2022/05/13 14:18:44;;;;;;;3.58;2.13;;;;;;;;;;5034646;28;20012;-52
2022/05/13 14:21:22;;;;;;;3.47;2.10;;;;;;;;;;5038495;28;20430;-51
2022/05/13 14:24:08;;;;;;;3.45;2.20;;;;;;;;;;5035469;28;20022;-49
2022/05/13 14:26:46;;;;;;;4.28;2.10;;;;;;;;;;5035005;28;20209;-49
2022/05/13 14:29:12;;;;;;;4.40;2.20;;;;;;;;;;5037019;28;20390;-49
2022/05/13 14:31:38;;;;;;;5.10;1.75;;;;;;;;;;5038815;28;20025;-50
2022/05/13 14:34:30;;;;;;;4.25;2.03;;;;;;;;;;5036253;28;20737;-50
2022/05/13 14:36:56;;;;;;;3.15;2.00;;;;;;;;;;5033886;28;20025;-51
2022/05/13 14:42:16;;;;;;;3.90;1.83;;;;;;;;;;5037055;28;20198;-49
2022/05/13 14:44:42;;;;;;;3.50;2.20;;;;;;;;;;5040107;28;20021;-48
2022/05/13 14:47:08;;;;;;;4.13;2.20;;;;;;;;;;5042009;28;20048;-51
2022/05/13 14:49:54;;;;;;;4.13;1.95;;;;;;;;;;5035290;28;20041;-50
2022/05/13 14:52:22;;;;;;;3.15;1.80;;;;;;;;;;5022610;28;20025;-50
2022/05/13 14:54:47;;;;;;;3.08;2.03;;;;;;;;;;5036628;28;20013;-49
2022/05/13 14:57:12;;;;;;;4.07;2.23;;;;;;;;;;5037179;28;20032;-49
2022/05/13 14:59:46;;;;;;;2.37;1.67;;;;;;;;;;5039520;28;20083;-49
2022/05/13 15:02:12;;;;;;;3.42;2.10;;;;;;;;;;5040320;28;20025;-50
2022/05/13 15:04:38;;;;;;;2.55;1.90;;;;;;;;;;5036530;28;20064;-49
2022/05/13 15:07:19;;;;;;;2.63;2.00;;;;;;;;;;5036473;28;20780;-48
2022/05/13 15:09:45;;;;;;;2.95;2.05;;;;;;;;;;5037586;28;20450;-49
2022/05/13 15:12:10;;;;;;;3.20;2.20;;;;;;;;;;5037767;28;20009;-49
2022/05/13 15:14:37;;;;;;;2.67;1.85;;;;;;;;;;5038701;28;20091;-47
2022/05/13 15:17:03;;;;;;;3.75;1.90;;;;;;;;;;5039523;28;20018;-49
2022/05/13 15:19:29;;;;;;;4.85;1.90;;;;;;;;;;5040205;28;20023;-49